EWG26K EDDH-LCLK
Flight info
| Callsign | EWG26K |
|---|---|
| Flight time | N/A |
| Altitude | 35000 |
| Route | AMLUH2G AMLUH M852 DENIX DCT ZUCKA DCT OMELO DCT PEPIK DCT ETARO DCT GITMU/N0431F370 DCT GUPRO DCT ADORU UL606 EKI UL854 KULAR UT39 TOMBI DCT DASNI M601 BONEK |
| Aircraft | A320/M-SDE3FGHIRWY/LB1 |
Departure
| Time | 2026-05-06 07:08 |
|---|---|
| Airport | Hamburg Helmut Schmidt Airport (EDDH) |
Arrival
| Time | N/A |
|---|---|
| Airport | Larnaca International Airport (LCLK) |
| Time | Latitude | Longitude | Altitude | Speed | Heading |
|---|---|---|---|---|---|
| 2026-05-06 06:36 | 53.63121 | 10.00059 | 46 ft | 0 kts | 140° |
| 2026-05-06 07:01 | 53.63140 | 10.00035 | 48 ft | 4 kts | 153° |
| 2026-05-06 07:01 | 53.63165 | 10.00022 | 47 ft | 4 kts | 190° |
| 2026-05-06 07:01 | 53.63180 | 10.00033 | 46 ft | 0 kts | 231° |
| 2026-05-06 07:04 | 53.63179 | 10.00033 | 46 ft | 1 kts | 231° |
| 2026-05-06 07:04 | 53.63144 | 9.99959 | 48 ft | 12 kts | 231° |
| 2026-05-06 07:05 | 53.63083 | 9.99920 | 48 ft | 9 kts | 161° |
| 2026-05-06 07:05 | 53.63030 | 9.99966 | 48 ft | 10 kts | 153° |
| 2026-05-06 07:05 | 53.62959 | 9.99987 | 48 ft | 10 kts | 163° |
| 2026-05-06 07:05 | 53.62907 | 9.99953 | 47 ft | 8 kts | 233° |
| 2026-05-06 07:06 | 53.62876 | 9.99851 | 46 ft | 10 kts | 244° |
| 2026-05-06 07:06 | 53.62866 | 9.99745 | 45 ft | 9 kts | 314° |
| 2026-05-06 07:06 | 53.62888 | 9.99724 | 45 ft | 1 kts | 335° |
| 2026-05-06 07:06 | 53.62893 | 9.99720 | 45 ft | 1 kts | 333° |
| 2026-05-06 07:07 | 53.63018 | 9.99614 | 45 ft | 54 kts | 334° |
| 2026-05-06 07:07 | 53.63549 | 9.99157 | 47 ft | 115 kts | 333° |
| 2026-05-06 07:07 | 53.64412 | 9.98417 | 60 ft | 161 kts | 333° |
| 2026-05-06 07:07 | 53.65469 | 9.97527 | 423 ft | 175 kts | 336° |
| 2026-05-06 07:08 | 53.66587 | 9.96592 | 1029 ft | 182 kts | 338° |
| 2026-05-06 07:08 | 53.67717 | 9.95629 | 1694 ft | 182 kts | 341° |
| 2026-05-06 07:08 | 53.68922 | 9.94803 | 2031 ft | 194 kts | 356° |
| 2026-05-06 07:08 | 53.70257 | 9.94694 | 2351 ft | 203 kts | 7° |
| 2026-05-06 07:09 | 53.71655 | 9.94751 | 2873 ft | 205 kts | 13° |
| 2026-05-06 07:09 | 53.72903 | 9.95739 | 3486 ft | 199 kts | 48° |
| 2026-05-06 07:09 | 53.73556 | 9.97667 | 4004 ft | 206 kts | 76° |
| 2026-05-06 07:09 | 53.73876 | 10.00012 | 4761 ft | 205 kts | 77° |
| 2026-05-06 07:10 | 53.74071 | 10.02415 | 5400 ft | 210 kts | 91° |
| 2026-05-06 07:10 | 53.73771 | 10.04869 | 5927 ft | 223 kts | 110° |
| 2026-05-06 07:10 | 53.73003 | 10.07276 | 6330 ft | 239 kts | 118° |
| 2026-05-06 07:10 | 53.72166 | 10.09746 | 6946 ft | 245 kts | 118° |
| 2026-05-06 07:11 | 53.71291 | 10.12342 | 7391 ft | 263 kts | 118° |
| 2026-05-06 07:11 | 53.70375 | 10.15072 | 8091 ft | 271 kts | 118° |
| 2026-05-06 07:11 | 53.69377 | 10.17807 | 8821 ft | 278 kts | 128° |
| 2026-05-06 07:11 | 53.67968 | 10.20082 | 9494 ft | 285 kts | 145° |
| 2026-05-06 07:12 | 53.66194 | 10.21591 | 10141 ft | 291 kts | 162° |
| 2026-05-06 07:12 | 53.64174 | 10.22571 | 10367 ft | 313 kts | 165° |
| 2026-05-06 07:12 | 53.61997 | 10.23565 | 10618 ft | 332 kts | 165° |
| 2026-05-06 07:12 | 53.59739 | 10.24584 | 11185 ft | 339 kts | 165° |
| 2026-05-06 07:13 | 53.57452 | 10.25612 | 11836 ft | 343 kts | 165° |
| 2026-05-06 07:13 | 53.55134 | 10.26656 | 12499 ft | 346 kts | 164° |
| 2026-05-06 07:13 | 53.52809 | 10.27707 | 13302 ft | 345 kts | 163° |
| 2026-05-06 07:13 | 53.50498 | 10.28762 | 14064 ft | 345 kts | 163° |
| 2026-05-06 07:14 | 53.48184 | 10.29823 | 14714 ft | 348 kts | 164° |
| 2026-05-06 07:14 | 53.45824 | 10.30907 | 15292 ft | 352 kts | 164° |
| 2026-05-06 07:14 | 53.43451 | 10.31992 | 15868 ft | 355 kts | 165° |
| 2026-05-06 07:14 | 53.41081 | 10.33071 | 16409 ft | 359 kts | 165° |
| 2026-05-06 07:15 | 53.38631 | 10.34178 | 16960 ft | 362 kts | 166° |
| 2026-05-06 07:15 | 53.36178 | 10.35278 | 17487 ft | 366 kts | 166° |
| 2026-05-06 07:15 | 53.33703 | 10.36384 | 17973 ft | 371 kts | 166° |
| 2026-05-06 07:15 | 53.31205 | 10.37503 | 18446 ft | 374 kts | 166° |
| 2026-05-06 07:16 | 53.28715 | 10.38621 | 18952 ft | 375 kts | 166° |
| 2026-05-06 07:16 | 53.26196 | 10.39754 | 19505 ft | 375 kts | 165° |
| 2026-05-06 07:16 | 53.23668 | 10.40891 | 20040 ft | 376 kts | 166° |
| 2026-05-06 07:16 | 53.21131 | 10.42028 | 20559 ft | 378 kts | 166° |
| 2026-05-06 07:17 | 53.18579 | 10.43163 | 21018 ft | 381 kts | 166° |
| 2026-05-06 07:17 | 53.16011 | 10.44301 | 21498 ft | 383 kts | 166° |
| 2026-05-06 07:17 | 53.13426 | 10.45447 | 21969 ft | 386 kts | 166° |
| 2026-05-06 07:17 | 53.10813 | 10.46498 | 22385 ft | 388 kts | 168° |
| 2026-05-06 07:18 | 53.08159 | 10.47391 | 22808 ft | 390 kts | 170° |
| 2026-05-06 07:18 | 53.05488 | 10.48187 | 23226 ft | 392 kts | 171° |
| 2026-05-06 07:18 | 53.02793 | 10.48948 | 23603 ft | 394 kts | 171° |
| 2026-05-06 07:18 | 53.00086 | 10.49716 | 23956 ft | 396 kts | 171° |
| 2026-05-06 07:19 | 52.97362 | 10.50515 | 24291 ft | 398 kts | 170° |
| 2026-05-06 07:19 | 52.94638 | 10.51337 | 24621 ft | 400 kts | 170° |
| 2026-05-06 07:19 | 52.91892 | 10.52184 | 24956 ft | 402 kts | 169° |
| 2026-05-06 07:19 | 52.89139 | 10.53049 | 25285 ft | 404 kts | 169° |
| 2026-05-06 07:20 | 52.86371 | 10.53919 | 25608 ft | 405 kts | 169° |
| 2026-05-06 07:20 | 52.83596 | 10.54788 | 25938 ft | 407 kts | 169° |
| 2026-05-06 07:20 | 52.80804 | 10.55654 | 26271 ft | 409 kts | 169° |
| 2026-05-06 07:20 | 52.77999 | 10.56517 | 26588 ft | 411 kts | 169° |
| 2026-05-06 07:21 | 52.75177 | 10.57382 | 26928 ft | 413 kts | 169° |
| 2026-05-06 07:21 | 52.72343 | 10.58250 | 27251 ft | 415 kts | 169° |
| 2026-05-06 07:21 | 52.69725 | 10.59052 | 27524 ft | 416 kts | 169° |
| 2026-05-06 07:21 | 52.66893 | 10.59917 | 27791 ft | 419 kts | 169° |
| 2026-05-06 07:22 | 52.63984 | 10.60802 | 28086 ft | 422 kts | 168° |
| 2026-05-06 07:22 | 52.61090 | 10.61689 | 28382 ft | 424 kts | 168° |
| 2026-05-06 07:22 | 52.58190 | 10.62573 | 28669 ft | 426 kts | 168° |
| 2026-05-06 07:22 | 52.55263 | 10.63458 | 28964 ft | 428 kts | 168° |
| 2026-05-06 07:23 | 52.52329 | 10.64344 | 29261 ft | 429 kts | 168° |
| 2026-05-06 07:23 | 52.49387 | 10.65236 | 29572 ft | 431 kts | 168° |
| 2026-05-06 07:23 | 52.46436 | 10.66133 | 29848 ft | 433 kts | 168° |
| 2026-05-06 07:23 | 52.43473 | 10.67031 | 30081 ft | 434 kts | 168° |
| 2026-05-06 07:24 | 52.40505 | 10.67928 | 30315 ft | 435 kts | 168° |
| 2026-05-06 07:24 | 52.37531 | 10.68826 | 30600 ft | 434 kts | 168° |
| 2026-05-06 07:24 | 52.34565 | 10.69723 | 30938 ft | 432 kts | 168° |
| 2026-05-06 07:24 | 52.31610 | 10.70615 | 31286 ft | 430 kts | 169° |
| 2026-05-06 07:25 | 52.28680 | 10.71498 | 31623 ft | 429 kts | 169° |
| 2026-05-06 07:25 | 52.25746 | 10.72378 | 31976 ft | 427 kts | 169° |
| 2026-05-06 07:25 | 52.22832 | 10.73251 | 32320 ft | 425 kts | 169° |
| 2026-05-06 07:25 | 52.19929 | 10.74121 | 32671 ft | 423 kts | 169° |
| 2026-05-06 07:26 | 52.17039 | 10.74986 | 33038 ft | 421 kts | 169° |
| 2026-05-06 07:26 | 52.14163 | 10.75848 | 33394 ft | 420 kts | 169° |
| 2026-05-06 07:26 | 52.11297 | 10.76705 | 33729 ft | 418 kts | 169° |
| 2026-05-06 07:26 | 52.08438 | 10.77556 | 34023 ft | 417 kts | 169° |
| 2026-05-06 07:27 | 52.05584 | 10.78403 | 34262 ft | 417 kts | 169° |
| 2026-05-06 07:27 | 52.02733 | 10.79250 | 34464 ft | 417 kts | 169° |
| 2026-05-06 07:27 | 51.99875 | 10.80098 | 34623 ft | 418 kts | 170° |
| 2026-05-06 07:27 | 51.97006 | 10.80946 | 34730 ft | 419 kts | 170° |
| 2026-05-06 07:28 | 51.94148 | 10.81793 | 34781 ft | 417 kts | 171° |
| 2026-05-06 07:28 | 51.85592 | 10.84319 | 34778 ft | 416 kts | 171° |
| 2026-05-06 07:29 | 51.79936 | 10.85983 | 34781 ft | 416 kts | 171° |
| 2026-05-06 07:29 | 51.74234 | 10.87682 | 34778 ft | 417 kts | 167° |
| 2026-05-06 07:30 | 51.71488 | 10.89206 | 34775 ft | 418 kts | 155° |
| 2026-05-06 07:30 | 51.68992 | 10.91626 | 34775 ft | 421 kts | 144° |
| 2026-05-06 07:30 | 51.66850 | 10.94852 | 34773 ft | 424 kts | 132° |
| 2026-05-06 07:30 | 51.65161 | 10.98766 | 34768 ft | 428 kts | 120° |
| 2026-05-06 07:31 | 51.62844 | 11.07621 | 34756 ft | 430 kts | 115° |
| 2026-05-06 07:31 | 51.60582 | 11.16553 | 34739 ft | 431 kts | 115° |
| 2026-05-06 07:32 | 51.58294 | 11.25494 | 34746 ft | 432 kts | 115° |
| 2026-05-06 07:32 | 51.56385 | 11.32923 | 34755 ft | 432 kts | 115° |
| 2026-05-06 07:33 | 51.53716 | 11.43309 | 34759 ft | 433 kts | 115° |
| 2026-05-06 07:33 | 51.51787 | 11.50798 | 34764 ft | 434 kts | 115° |
| 2026-05-06 07:34 | 51.49471 | 11.59743 | 34764 ft | 434 kts | 115° |
| 2026-05-06 07:34 | 51.47150 | 11.68671 | 34750 ft | 434 kts | 115° |
| 2026-05-06 07:35 | 51.44832 | 11.77573 | 34748 ft | 435 kts | 116° |
| 2026-05-06 07:35 | 51.42486 | 11.86540 | 34751 ft | 436 kts | 116° |
| 2026-05-06 07:36 | 51.40129 | 11.95503 | 34752 ft | 437 kts | 116° |
| 2026-05-06 07:36 | 51.37762 | 12.04475 | 34733 ft | 438 kts | 116° |
| 2026-05-06 07:37 | 51.35384 | 12.13447 | 34736 ft | 439 kts | 116° |
| 2026-05-06 07:37 | 51.32993 | 12.22407 | 34750 ft | 440 kts | 116° |
| 2026-05-06 07:38 | 51.30587 | 12.31430 | 34742 ft | 442 kts | 116° |
| 2026-05-06 07:38 | 51.28170 | 12.40467 | 34748 ft | 442 kts | 117° |
| 2026-05-06 07:39 | 51.25740 | 12.49482 | 34746 ft | 443 kts | 117° |
| 2026-05-06 07:39 | 51.23299 | 12.58513 | 34751 ft | 444 kts | 117° |
| 2026-05-06 07:40 | 51.20848 | 12.67553 | 34750 ft | 444 kts | 117° |
| 2026-05-06 07:40 | 51.18386 | 12.76593 | 34752 ft | 445 kts | 117° |
| 2026-05-06 07:41 | 51.15917 | 12.85635 | 34755 ft | 445 kts | 117° |
| 2026-05-06 07:41 | 51.13440 | 12.94670 | 34729 ft | 445 kts | 118° |
| 2026-05-06 07:42 | 51.10972 | 13.03639 | 34734 ft | 446 kts | 118° |
| 2026-05-06 07:42 | 51.08469 | 13.12681 | 34739 ft | 446 kts | 118° |
| 2026-05-06 07:43 | 51.05958 | 13.21712 | 34741 ft | 447 kts | 118° |
| 2026-05-06 07:43 | 51.03437 | 13.30748 | 34746 ft | 448 kts | 119° |
| 2026-05-06 07:44 | 51.00903 | 13.39807 | 34732 ft | 449 kts | 119° |
| 2026-05-06 07:44 | 50.98360 | 13.48871 | 34743 ft | 450 kts | 119° |
| 2026-05-06 07:45 | 50.95800 | 13.57947 | 34754 ft | 451 kts | 120° |
| 2026-05-06 07:45 | 50.93226 | 13.67024 | 34760 ft | 451 kts | 120° |
| 2026-05-06 07:46 | 50.90649 | 13.76098 | 34764 ft | 452 kts | 120° |
| 2026-05-06 07:46 | 50.88067 | 13.85171 | 34768 ft | 452 kts | 120° |
| 2026-05-06 07:47 | 50.85474 | 13.94239 | 34770 ft | 452 kts | 120° |
| 2026-05-06 07:47 | 50.82204 | 14.02510 | 34767 ft | 438 kts | 137° |
| 2026-05-06 07:48 | 50.77956 | 14.09340 | 34764 ft | 435 kts | 141° |
| 2026-05-06 07:48 | 50.73684 | 14.16118 | 34749 ft | 436 kts | 141° |
| 2026-05-06 07:49 | 50.69442 | 14.22854 | 34746 ft | 436 kts | 141° |
| 2026-05-06 07:49 | 50.65164 | 14.29623 | 34756 ft | 435 kts | 141° |
| 2026-05-06 07:50 | 50.60879 | 14.36367 | 34770 ft | 436 kts | 141° |
| 2026-05-06 07:50 | 50.56584 | 14.43105 | 34773 ft | 435 kts | 141° |
| 2026-05-06 07:51 | 50.52294 | 14.49820 | 34793 ft | 436 kts | 142° |
| 2026-05-06 07:51 | 50.47994 | 14.56532 | 34783 ft | 435 kts | 142° |
| 2026-05-06 07:52 | 50.43700 | 14.63222 | 34793 ft | 435 kts | 142° |